Time;durP1;ratioP1;P1;durP2;ratioP2;P2;SDS_P1;SDS_P2;PMS_P1;PMS_P2;Temp;Humidity;BMP_temperature;BMP_pressure;BME280_temperature;BME280_humidity;BME280_pressure;Samples;Min_cycle;Max_cycle;Signal;HPM_P1;HPM_P2
2024/04/25 00:02:15;;;;;;;;;;;;;;;;;;5443131;26;20018;-67
2024/04/25 00:04:40;;;;;;;;;;;;;;;;;;5443211;26;19928;-67
2024/04/25 00:07:05;;;;;;;;;;;;;;;;;;5442619;26;19945;-66
2024/04/25 00:09:30;;;;;;;;;;;;;;;;;;5443045;26;20277;-67
2024/04/25 00:11:55;;;;;;;;;;;;;;;;;;5443827;26;19976;-68
2024/04/25 00:14:20;;;;;;;;;;;;;;;;;;5443106;26;19940;-67
2024/04/25 00:16:46;;;;;;;;;;;;;;;;;;5443099;26;19956;-67
2024/04/25 00:19:11;;;;;;;;;;;;;;;;;;5443473;26;20339;-67
2024/04/25 00:21:36;;;;;;;;;;;;;;;;;;5482097;25;19993;-67
2024/04/25 00:24:01;;;;;;;;;;;;;;;;;;5464140;25;19927;-68
2024/04/25 00:26:27;;;;;;;;;;;;;;;;;;5463760;25;19955;-67
2024/04/25 00:28:52;;;;;;;;;;;;;;;;;;5478160;26;19992;-67
2024/04/25 00:31:17;;;;;;;;;;;;;;;;;;5477858;25;20276;-66
2024/04/25 00:33:42;;;;;;;;;;;;;;;;;;5480060;25;19939;-67
2024/04/25 00:36:07;;;;;;;;;;;;;;;;;;5488571;25;19935;-67
2024/04/25 00:38:32;;;;;;;;;;;;;;;;;;5479662;25;20269;-67
2024/04/25 00:40:57;;;;;;;;;;;;;;;;;;5464495;25;19928;-66
2024/04/25 00:43:22;;;;;;;;;;;;;;;;;;5478618;25;19934;-68
2024/04/25 00:45:47;;;;;;;;;;;;;;;;;;5477112;25;20424;-67
2024/04/25 00:48:13;;;;;;;;;;;;;;;;;;5464983;25;19956;-67
2024/04/25 00:50:38;;;;;;;;;;;;;;;;;;5479454;25;19928;-67
2024/04/25 00:53:03;;;;;;;;;;;;;;;;;;5474308;25;20316;-67
2024/04/25 00:55:29;;;;;;;;;;;;;;;;;;5461114;25;19941;-66
2024/04/25 00:57:54;;;;;;;;;;;;;;;;;;5476121;25;19935;-67
2024/04/25 01:00:19;;;;;;;;;;;;;;;;;;5442682;26;19933;-67
2024/04/25 01:02:44;;;;;;;;;;;;;;;;;;5439651;26;19940;-67
2024/04/25 01:05:09;;;;;;;;;;;;;;;;;;5442402;26;19929;-66
2024/04/25 01:07:34;;;;;;;;;;;;;;;;;;5438931;26;19988;-66
2024/04/25 01:09:59;;;;;;;;;;;;;;;;;;5438296;26;19935;-67
2024/04/25 01:12:24;;;;;;;;;;;;;;;;;;5433073;26;19929;-66
2024/04/25 01:14:49;;;;;;;;;;;;;;;;;;5442256;26;19940;-66
2024/04/25 01:17:14;;;;;;;;;;;;;;;;;;5439206;26;19929;-66
2024/04/25 01:19:39;;;;;;;;;;;;;;;;;;5436327;26;19928;-67
2024/04/25 01:22:05;;;;;;;;;;;;;;;;;;5440086;26;20014;-68
2024/04/25 01:24:30;;;;;;;;;;;;;;;;;;5419427;26;19932;-66
2024/04/25 01:26:55;;;;;;;;;;;;;;;;;;5441624;26;19964;-66
2024/04/25 01:29:20;;;;;;;;;;;;;;;;;;5441304;26;19940;-67
2024/04/25 01:31:45;;;;;;;;;;;;;;;;;;5438800;26;19928;-67
2024/04/25 01:34:10;;;;;;;;;;;;;;;;;;5434039;26;19929;-67
2024/04/25 01:36:37;;;;;;;;;;;;;;;;;;5451442;26;19928;-67
2024/04/25 01:39:02;;;;;;;;;;;;;;;;;;5477220;26;19927;-67
2024/04/25 01:41:27;;;;;;;;;;;;;;;;;;5478608;25;19935;-67
2024/04/25 01:43:52;;;;;;;;;;;;;;;;;;5481935;25;19928;-66
2024/04/25 01:46:17;;;;;;;;;;;;;;;;;;5480863;25;19928;-67
2024/04/25 01:48:45;;;;;;;;;;;;;;;;;;5481863;25;20588;-67
2024/04/25 01:51:10;;;;;;;;;;;;;;;;;;5481185;25;19927;-67
2024/04/25 01:53:35;;;;;;;;;;;;;;;;;;5480485;25;19928;-66
2024/04/25 01:56:00;;;;;;;;;;;;;;;;;;5480422;25;19928;-68
2024/04/25 01:58:25;;;;;;;;;;;;;;;;;;5480808;25;19971;-67
2024/04/25 02:00:50;;;;;;;;;;;;;;;;;;5481686;25;19928;-66
2024/04/25 02:03:15;;;;;;;;;;;;;;;;;;5481681;25;19997;-67
2024/04/25 02:05:42;;;;;;;;;;;;;;;;;;5481685;25;19939;-67
2024/04/25 02:08:07;;;;;;;;;;;;;;;;;;5478926;25;20365;-67
2024/04/25 02:10:32;;;;;;;;;;;;;;;;;;5481198;25;19928;-66
2024/04/25 02:12:57;;;;;;;;;;;;;;;;;;5481183;25;19927;-67
2024/04/25 02:15:22;;;;;;;;;;;;;;;;;;5481342;25;20475;-66
2024/04/25 02:17:47;;;;;;;;;;;;;;;;;;5480696;25;21055;-68
2024/04/25 02:25:40;;;;;;;;;;;;;;;;;;5472385;25;19935;-65
2024/04/25 02:28:05;;;;;;;;;;;;;;;;;;5480250;25;19927;-66
2024/04/25 02:30:30;;;;;;;;;;;;;;;;;;5480775;25;20267;-68
2024/04/25 02:32:55;;;;;;;;;;;;;;;;;;5479395;25;19932;-68
2024/04/25 02:35:20;;;;;;;;;;;;;;;;;;5479280;25;19955;-66
2024/04/25 02:37:46;;;;;;;;;;;;;;;;;;5483416;25;19947;-68
2024/04/25 02:40:11;;;;;;;;;;;;;;;;;;5480365;25;19944;-67
2024/04/25 02:42:36;;;;;;;;;;;;;;;;;;5481127;25;19939;-67
2024/04/25 02:45:01;;;;;;;;;;;;;;;;;;5465595;25;19937;-67
2024/04/25 02:47:26;;;;;;;;;;;;;;;;;;5444057;26;19994;-66
2024/04/25 02:49:51;;;;;;;;;;;;;;;;;;5444665;26;20263;-64
2024/04/25 02:52:16;;;;;;;;;;;;;;;;;;5447238;26;19929;-65
2024/04/25 02:54:41;;;;;;;;;;;;;;;;;;5477092;26;20428;-65
2024/04/25 02:57:06;;;;;;;;;;;;;;;;;;5480647;25;19928;-65
2024/04/25 02:59:31;;;;;;;;;;;;;;;;;;5480518;25;19927;-65
2024/04/25 03:01:56;;;;;;;;;;;;;;;;;;5481302;25;19936;-65
2024/04/25 03:04:22;;;;;;;;;;;;;;;;;;5488357;25;19996;-65
2024/04/25 03:06:47;;;;;;;;;;;;;;;;;;5480316;25;19992;-65
2024/04/25 03:09:12;;;;;;;;;;;;;;;;;;5480037;25;19947;-65
2024/04/25 03:11:37;;;;;;;;;;;;;;;;;;5480282;25;19935;-65
2024/04/25 03:14:03;;;;;;;;;;;;;;;;;;5479676;25;20386;-64
2024/04/25 03:16:28;;;;;;;;;;;;;;;;;;5479742;25;20268;-65
2024/04/25 03:18:54;;;;;;;;;;;;;;;;;;5480179;25;20363;-65
2024/04/25 03:21:19;;;;;;;;;;;;;;;;;;5479910;26;19935;-65
2024/04/25 03:23:44;;;;;;;;;;;;;;;;;;5480747;25;19928;-65
2024/04/25 03:26:09;;;;;;;;;;;;;;;;;;5479671;25;19939;-65
2024/04/25 03:28:34;;;;;;;;;;;;;;;;;;5480063;25;19979;-65
2024/04/25 03:30:59;;;;;;;;;;;;;;;;;;5466080;25;19936;-64
2024/04/25 03:33:24;;;;;;;;;;;;;;;;;;5444217;26;19940;-65
2024/04/25 03:35:49;;;;;;;;;;;;;;;;;;5456072;26;19967;-65
2024/04/25 03:38:14;;;;;;;;;;;;;;;;;;5477674;26;20242;-65
2024/04/25 03:40:40;;;;;;;;;;;;;;;;;;5480001;25;19928;-65
2024/04/25 03:43:05;;;;;;;;;;;;;;;;;;5478396;26;19928;-65
2024/04/25 03:45:30;;;;;;;;;;;;;;;;;;5480048;25;20281;-65
2024/04/25 03:47:55;;;;;;;;;;;;;;;;;;5479210;25;19928;-65
2024/04/25 03:50:21;;;;;;;;;;;;;;;;;;5480087;25;19935;-65
2024/04/25 03:52:46;;;;;;;;;;;;;;;;;;5480238;25;19936;-65
2024/04/25 03:55:11;;;;;;;;;;;;;;;;;;5479446;25;19928;-65
2024/04/25 03:57:36;;;;;;;;;;;;;;;;;;5480283;25;19928;-65
2024/04/25 04:00:01;;;;;;;;;;;;;;;;;;5479301;25;20277;-67
2024/04/25 04:02:26;;;;;;;;;;;;;;;;;;5479942;25;19928;-65
2024/04/25 04:04:51;;;;;;;;;;;;;;;;;;5479660;25;19928;-65
2024/04/25 04:07:16;;;;;;;;;;;;;;;;;;5478746;25;20010;-65
2024/04/25 04:09:42;;;;;;;;;;;;;;;;;;5480052;25;19936;-65
2024/04/25 04:12:07;;;;;;;;;;;;;;;;;;5479107;25;20312;-65
2024/04/25 04:14:32;;;;;;;;;;;;;;;;;;5479258;25;20257;-65
2024/04/25 04:16:57;;;;;;;;;;;;;;;;;;5479266;25;20456;-65
2024/04/25 04:19:22;;;;;;;;;;;;;;;;;;5479244;25;19996;-64
2024/04/25 04:21:47;;;;;;;;;;;;;;;;;;5482743;25;19928;-64
2024/04/25 04:24:14;;;;;;;;;;;;;;;;;;5479330;25;19952;-64
2024/04/25 04:26:39;;;;;;;;;;;;;;;;;;5476425;26;20376;-65
2024/04/25 04:29:04;;;;;;;;;;;;;;;;;;5479222;25;19928;-65
2024/04/25 04:31:29;;;;;;;;;;;;;;;;;;5479201;25;20006;-65
2024/04/25 04:33:54;;;;;;;;;;;;;;;;;;5478900;25;20342;-65
2024/04/25 04:36:19;;;;;;;;;;;;;;;;;;5491114;25;19935;-65
2024/04/25 04:38:44;;;;;;;;;;;;;;;;;;5479299;25;20538;-65
2024/04/25 04:41:10;;;;;;;;;;;;;;;;;;5479036;25;19996;-64
2024/04/25 04:43:36;;;;;;;;;;;;;;;;;;5479471;25;20234;-65
2024/04/25 04:46:03;;;;;;;;;;;;;;;;;;5478493;25;20460;-65
2024/04/25 04:48:28;;;;;;;;;;;;;;;;;;5477679;25;19936;-65
2024/04/25 04:50:54;;;;;;;;;;;;;;;;;;5479398;25;20026;-65
2024/04/25 04:53:19;;;;;;;;;;;;;;;;;;5479106;25;20011;-64
2024/04/25 04:55:44;;;;;;;;;;;;;;;;;;5478688;25;19939;-65
2024/04/25 04:58:09;;;;;;;;;;;;;;;;;;5478692;25;19928;-64
2024/04/25 05:00:34;;;;;;;;;;;;;;;;;;5479839;25;20475;-65
2024/04/25 05:02:59;;;;;;;;;;;;;;;;;;5478758;25;20429;-65
2024/04/25 05:05:24;;;;;;;;;;;;;;;;;;5477609;25;19935;-64
2024/04/25 05:07:55;;;;;;;;;;;;;;;;;;5479090;25;19935;-64
2024/04/25 05:10:20;;;;;;;;;;;;;;;;;;5478156;25;19939;-65
2024/04/25 05:12:46;;;;;;;;;;;;;;;;;;5478830;25;19928;-65
2024/04/25 05:15:11;;;;;;;;;;;;;;;;;;5478032;25;20364;-65
2024/04/25 05:17:36;;;;;;;;;;;;;;;;;;5481082;25;19963;-65
2024/04/25 05:20:01;;;;;;;;;;;;;;;;;;5486115;25;19996;-66
2024/04/25 05:22:26;;;;;;;;;;;;;;;;;;5481738;25;19948;-64
2024/04/25 05:24:51;;;;;;;;;;;;;;;;;;5482472;25;19960;-65
2024/04/25 05:27:16;;;;;;;;;;;;;;;;;;5482235;25;19939;-65
2024/04/25 05:29:41;;;;;;;;;;;;;;;;;;5481132;26;20005;-68
2024/04/25 05:32:06;;;;;;;;;;;;;;;;;;5480502;25;19928;-65
2024/04/25 05:34:31;;;;;;;;;;;;;;;;;;5481489;25;19964;-65
2024/04/25 05:36:56;;;;;;;;;;;;;;;;;;5495465;26;20237;-65
2024/04/25 05:39:22;;;;;;;;;;;;;;;;;;5484012;26;20520;-65
2024/04/25 05:41:47;;;;;;;;;;;;;;;;;;5481684;25;19943;-65
2024/04/25 05:44:12;;;;;;;;;;;;;;;;;;5480354;25;19935;-64
2024/04/25 05:46:37;;;;;;;;;;;;;;;;;;5481642;25;19935;-65
2024/04/25 05:49:02;;;;;;;;;;;;;;;;;;5481932;25;19956;-65
2024/04/25 05:51:27;;;;;;;;;;;;;;;;;;5481743;25;20355;-65
2024/04/25 05:53:52;;;;;;;;;;;;;;;;;;5480927;25;19935;-65
2024/04/25 05:56:17;;;;;;;;;;;;;;;;;;5462023;25;19928;-65
2024/04/25 05:58:46;;;;;;;;;;;;;;;;;;5445214;26;20285;-65
2024/04/25 06:01:16;;;;;;;;;;;;;;;;;;5434680;26;20284;-65
2024/04/25 06:03:41;;;;;;;;;;;;;;;;;;5443984;26;20036;-65
2024/04/25 06:06:06;;;;;;;;;;;;;;;;;;5445041;26;19937;-65
2024/04/25 06:08:31;;;;;;;;;;;;;;;;;;5460810;25;20002;-66
2024/04/25 06:10:56;;;;;;;;;;;;;;;;;;5443995;26;19945;-66
2024/04/25 06:13:21;;;;;;;;;;;;;;;;;;5422642;26;19936;-66
2024/04/25 06:15:47;;;;;;;;;;;;;;;;;;5459338;26;19944;-66
2024/04/25 06:18:12;;;;;;;;;;;;;;;;;;5451147;26;19929;-66
2024/04/25 06:20:37;;;;;;;;;;;;;;;;;;5456109;25;19928;-66
2024/04/25 06:23:03;;;;;;;;;;;;;;;;;;5481458;26;19977;-66
2024/04/25 06:25:28;;;;;;;;;;;;;;;;;;5480595;25;19927;-66
2024/04/25 06:27:54;;;;;;;;;;;;;;;;;;5477221;25;19928;-66
2024/04/25 06:30:19;;;;;;;;;;;;;;;;;;5476594;25;19939;-66
2024/04/25 06:32:44;;;;;;;;;;;;;;;;;;5500728;25;19934;-66
2024/04/25 06:35:09;;;;;;;;;;;;;;;;;;5497210;25;19997;-66
2024/04/25 06:37:34;;;;;;;;;;;;;;;;;;5493167;25;20535;-66
2024/04/25 06:39:59;;;;;;;;;;;;;;;;;;5481744;25;20169;-64
2024/04/25 06:42:24;;;;;;;;;;;;;;;;;;5477745;25;19944;-65
2024/04/25 06:44:50;;;;;;;;;;;;;;;;;;5480588;25;19952;-66
2024/04/25 06:47:15;;;;;;;;;;;;;;;;;;5480129;25;19928;-67
2024/04/25 06:49:40;;;;;;;;;;;;;;;;;;5480958;25;19935;-66
2024/04/25 06:52:05;;;;;;;;;;;;;;;;;;5480208;25;20291;-66
2024/04/25 06:54:30;;;;;;;;;;;;;;;;;;5465536;25;20357;-66
2024/04/25 06:56:55;;;;;;;;;;;;;;;;;;5481390;25;19927;-66
2024/04/25 06:59:20;;;;;;;;;;;;;;;;;;5479006;26;19928;-66
2024/04/25 07:01:46;;;;;;;;;;;;;;;;;;5475288;25;19928;-65
2024/04/25 07:04:11;;;;;;;;;;;;;;;;;;5471836;25;19935;-65
2024/04/25 07:06:36;;;;;;;;;;;;;;;;;;5466118;26;20001;-65
2024/04/25 07:09:06;;;;;;;;;;;;;;;;;;5477681;25;19934;-65
2024/04/25 07:11:31;;;;;;;;;;;;;;;;;;5477567;26;19928;-65
2024/04/25 07:13:56;;;;;;;;;;;;;;;;;;5479373;25;19972;-65
2024/04/25 07:16:21;;;;;;;;;;;;;;;;;;5478642;25;20195;-65
2024/04/25 07:18:46;;;;;;;;;;;;;;;;;;5479791;25;19939;-65
2024/04/25 07:21:11;;;;;;;;;;;;;;;;;;5486427;25;19936;-65
2024/04/25 07:23:36;;;;;;;;;;;;;;;;;;5479250;25;19940;-65
2024/04/25 07:26:02;;;;;;;;;;;;;;;;;;5480596;25;19997;-65
2024/04/25 07:28:27;;;;;;;;;;;;;;;;;;5479269;25;19946;-65
2024/04/25 07:30:52;;;;;;;;;;;;;;;;;;5480470;25;20505;-65
2024/04/25 07:33:17;;;;;;;;;;;;;;;;;;5479001;26;20377;-65
2024/04/25 07:35:44;;;;;;;;;;;;;;;;;;5479987;25;19935;-66
2024/04/25 07:38:09;;;;;;;;;;;;;;;;;;5472103;25;19932;-66
2024/04/25 07:40:36;;;;;;;;;;;;;;;;;;5479677;25;19972;-66
2024/04/25 07:43:02;;;;;;;;;;;;;;;;;;5470599;25;19935;-66
2024/04/25 07:45:28;;;;;;;;;;;;;;;;;;5478602;25;20332;-66
2024/04/25 07:47:53;;;;;;;;;;;;;;;;;;5470889;26;19932;-66
2024/04/25 07:50:18;;;;;;;;;;;;;;;;;;5470592;25;19996;-65
2024/04/25 07:52:43;;;;;;;;;;;;;;;;;;5466843;26;20365;-65
2024/04/25 07:55:08;;;;;;;;;;;;;;;;;;5476235;26;19934;-66
2024/04/25 07:57:33;;;;;;;;;;;;;;;;;;5478735;25;19956;-65
2024/04/25 07:59:58;;;;;;;;;;;;;;;;;;5475337;25;20274;-65
2024/04/25 08:02:23;;;;;;;;;;;;;;;;;;5468540;25;19928;-65
2024/04/25 08:04:49;;;;;;;;;;;;;;;;;;5468958;26;19928;-65
2024/04/25 08:07:14;;;;;;;;;;;;;;;;;;5487611;26;20479;-65
2024/04/25 08:09:39;;;;;;;;;;;;;;;;;;5484772;25;19927;-65
2024/04/25 08:12:04;;;;;;;;;;;;;;;;;;5470820;25;19931;-65
2024/04/25 08:14:29;;;;;;;;;;;;;;;;;;5485117;25;19935;-65
2024/04/25 08:16:54;;;;;;;;;;;;;;;;;;5485590;25;19936;-65
2024/04/25 08:19:19;;;;;;;;;;;;;;;;;;5486657;25;19928;-65
2024/04/25 08:21:45;;;;;;;;;;;;;;;;;;5499446;25;19960;-64
2024/04/25 08:24:12;;;;;;;;;;;;;;;;;;5493634;25;19939;-65
2024/04/25 08:26:37;;;;;;;;;;;;;;;;;;5485155;25;20432;-65
2024/04/25 08:29:03;;;;;;;;;;;;;;;;;;5501037;25;20365;-65
2024/04/25 08:31:28;;;;;;;;;;;;;;;;;;5463880;25;19928;-65
2024/04/25 08:33:53;;;;;;;;;;;;;;;;;;5467760;26;20439;-65
2024/04/25 08:36:18;;;;;;;;;;;;;;;;;;5455287;26;19932;-65
2024/04/25 08:38:44;;;;;;;;;;;;;;;;;;5464246;26;20330;-65
2024/04/25 08:41:10;;;;;;;;;;;;;;;;;;5471761;26;19934;-65
2024/04/25 08:43:35;;;;;;;;;;;;;;;;;;5487675;26;19928;-64
2024/04/25 08:46:00;;;;;;;;;;;;;;;;;;5445231;26;20643;-65
2024/04/25 08:48:25;;;;;;;;;;;;;;;;;;5464401;26;19945;-65
2024/04/25 08:50:50;;;;;;;;;;;;;;;;;;5462717;26;20253;-64
2024/04/25 08:53:16;;;;;;;;;;;;;;;;;;5457584;26;20602;-65
2024/04/25 08:55:41;;;;;;;;;;;;;;;;;;5484252;26;19940;-65
2024/04/25 08:58:06;;;;;;;;;;;;;;;;;;5476689;25;20411;-65
2024/04/25 09:00:31;;;;;;;;;;;;;;;;;;5466956;26;20264;-65
2024/04/25 09:02:57;;;;;;;;;;;;;;;;;;5465828;25;20464;-65
2024/04/25 09:05:22;;;;;;;;;;;;;;;;;;5466160;25;19970;-65
2024/04/25 09:07:47;;;;;;;;;;;;;;;;;;5456914;25;19929;-65
2024/04/25 09:10:13;;;;;;;;;;;;;;;;;;5471994;26;19931;-65
2024/04/25 09:12:38;;;;;;;;;;;;;;;;;;5488362;26;19939;-64
2024/04/25 09:15:03;;;;;;;;;;;;;;;;;;5432911;26;19937;-65
2024/04/25 09:17:28;;;;;;;;;;;;;;;;;;5455681;26;19936;-64
2024/04/25 09:19:54;;;;;;;;;;;;;;;;;;5480921;25;20261;-65
2024/04/25 09:22:19;;;;;;;;;;;;;;;;;;5447667;26;19940;-65
2024/04/25 09:24:44;;;;;;;;;;;;;;;;;;5494307;26;20361;-65
2024/04/25 09:27:09;;;;;;;;;;;;;;;;;;5458374;26;20404;-65
2024/04/25 09:29:34;;;;;;;;;;;;;;;;;;5441129;26;19928;-65
2024/04/25 09:31:59;;;;;;;;;;;;;;;;;;5467906;26;19943;-65
2024/04/25 09:34:24;;;;;;;;;;;;;;;;;;5473722;26;20393;-65
2024/04/25 09:36:50;;;;;;;;;;;;;;;;;;5484633;26;19928;-65
2024/04/25 09:39:15;;;;;;;;;;;;;;;;;;5481572;25;19940;-65
2024/04/25 09:41:40;;;;;;;;;;;;;;;;;;5490708;25;19927;-65
2024/04/25 09:44:05;;;;;;;;;;;;;;;;;;5472497;25;20034;-66
2024/04/25 09:46:30;;;;;;;;;;;;;;;;;;5478625;25;19935;-65
2024/04/25 09:48:55;;;;;;;;;;;;;;;;;;5473721;26;20285;-65
2024/04/25 09:51:20;;;;;;;;;;;;;;;;;;5476243;25;20354;-65
2024/04/25 09:53:45;;;;;;;;;;;;;;;;;;5493130;25;19935;-66
2024/04/25 09:56:10;;;;;;;;;;;;;;;;;;5467090;26;19928;-65
2024/04/25 09:58:36;;;;;;;;;;;;;;;;;;5464897;25;20026;-65
2024/04/25 10:01:01;;;;;;;;;;;;;;;;;;5473065;26;19927;-66
2024/04/25 10:03:26;;;;;;;;;;;;;;;;;;5478421;26;20389;-65
2024/04/25 10:05:51;;;;;;;;;;;;;;;;;;5491425;25;19935;-66
2024/04/25 10:08:16;;;;;;;;;;;;;;;;;;5485177;25;19940;-65
2024/04/25 10:10:42;;;;;;;;;;;;;;;;;;5477557;25;20392;-65
2024/04/25 10:13:07;;;;;;;;;;;;;;;;;;5482496;25;20374;-66
2024/04/25 10:15:33;;;;;;;;;;;;;;;;;;5500299;25;20292;-65
2024/04/25 10:17:58;;;;;;;;;;;;;;;;;;5478500;26;19985;-66
2024/04/25 10:20:24;;;;;;;;;;;;;;;;;;5466586;26;20001;-66
2024/04/25 10:22:49;;;;;;;;;;;;;;;;;;5473381;25;20494;-65
2024/04/25 10:25:18;;;;;;;;;;;;;;;;;;5476696;25;19928;-65
2024/04/25 10:27:45;;;;;;;;;;;;;;;;;;5475686;26;20013;-65
2024/04/25 10:30:10;;;;;;;;;;;;;;;;;;5456930;26;19935;-67
2024/04/25 10:32:35;;;;;;;;;;;;;;;;;;5484265;25;20235;-66
2024/04/25 10:35:01;;;;;;;;;;;;;;;;;;5487391;25;19927;-65
2024/04/25 10:37:26;;;;;;;;;;;;;;;;;;5486715;26;19938;-66
2024/04/25 10:39:51;;;;;;;;;;;;;;;;;;5456886;26;19948;-66
2024/04/25 10:42:16;;;;;;;;;;;;;;;;;;5461360;25;20337;-66
2024/04/25 10:44:41;;;;;;;;;;;;;;;;;;5462839;26;19929;-64
2024/04/25 10:47:06;;;;;;;;;;;;;;;;;;5454105;26;19940;-63
2024/04/25 10:49:31;;;;;;;;;;;;;;;;;;5458491;26;20286;-64
2024/04/25 10:51:56;;;;;;;;;;;;;;;;;;5487562;26;19928;-64
2024/04/25 10:54:22;;;;;;;;;;;;;;;;;;5480784;25;20351;-66
2024/04/25 10:56:47;;;;;;;;;;;;;;;;;;5502045;25;19927;-65
2024/04/25 10:59:12;;;;;;;;;;;;;;;;;;5498076;25;20333;-66
2024/04/25 11:01:37;;;;;;;;;;;;;;;;;;5494087;25;19969;-66
2024/04/25 11:04:03;;;;;;;;;;;;;;;;;;5500736;25;19928;-66
2024/04/25 11:06:28;;;;;;;;;;;;;;;;;;5472856;25;20415;-64
2024/04/25 11:08:53;;;;;;;;;;;;;;;;;;5460643;26;20264;-64
2024/04/25 11:11:18;;;;;;;;;;;;;;;;;;5480165;25;19928;-66
2024/04/25 11:13:43;;;;;;;;;;;;;;;;;;5489318;26;20285;-64
2024/04/25 11:16:09;;;;;;;;;;;;;;;;;;5486795;25;20358;-64
2024/04/25 11:18:34;;;;;;;;;;;;;;;;;;5474855;26;19952;-63
2024/04/25 11:20:59;;;;;;;;;;;;;;;;;;5474781;25;19939;-66
2024/04/25 11:23:24;;;;;;;;;;;;;;;;;;5469159;25;20310;-66
2024/04/25 11:25:49;;;;;;;;;;;;;;;;;;5480619;25;20252;-66
2024/04/25 11:28:14;;;;;;;;;;;;;;;;;;5490592;25;19927;-66
2024/04/25 11:30:39;;;;;;;;;;;;;;;;;;5477037;25;20300;-63
2024/04/25 11:33:04;;;;;;;;;;;;;;;;;;5459497;25;19928;-64
2024/04/25 11:35:29;;;;;;;;;;;;;;;;;;5427463;26;20357;-64
2024/04/25 11:37:55;;;;;;;;;;;;;;;;;;5468042;25;19931;-63
2024/04/25 11:40:20;;;;;;;;;;;;;;;;;;5445063;26;20005;-64
2024/04/25 11:42:45;;;;;;;;;;;;;;;;;;5475260;26;20405;-64
2024/04/25 11:45:10;;;;;;;;;;;;;;;;;;5474008;26;20000;-64
2024/04/25 11:47:35;;;;;;;;;;;;;;;;;;5441177;26;19936;-64
2024/04/25 11:50:01;;;;;;;;;;;;;;;;;;5461895;26;19944;-65
2024/04/25 11:52:26;;;;;;;;;;;;;;;;;;5442667;26;19940;-65
2024/04/25 11:54:52;;;;;;;;;;;;;;;;;;5458155;26;20248;-65
2024/04/25 11:57:17;;;;;;;;;;;;;;;;;;5466293;25;20545;-65
2024/04/25 11:59:42;;;;;;;;;;;;;;;;;;5472424;26;20346;-67
2024/04/25 12:02:07;;;;;;;;;;;;;;;;;;5459672;26;19928;-67
2024/04/25 12:04:32;;;;;;;;;;;;;;;;;;5463310;26;20281;-67
2024/04/25 12:06:57;;;;;;;;;;;;;;;;;;5462222;26;20003;-64
2024/04/25 12:09:22;;;;;;;;;;;;;;;;;;5464358;26;20029;-64
2024/04/25 12:11:49;;;;;;;;;;;;;;;;;;5472441;26;19929;-67
2024/04/25 12:14:14;;;;;;;;;;;;;;;;;;5475307;25;20176;-67
2024/04/25 12:16:39;;;;;;;;;;;;;;;;;;5478134;25;19984;-67
2024/04/25 12:19:04;;;;;;;;;;;;;;;;;;5481762;26;19936;-67
2024/04/25 12:21:29;;;;;;;;;;;;;;;;;;5455832;25;20022;-67
2024/04/25 12:23:54;;;;;;;;;;;;;;;;;;5471613;26;20436;-65
2024/04/25 12:26:20;;;;;;;;;;;;;;;;;;5462661;26;20016;-65
2024/04/25 12:28:46;;;;;;;;;;;;;;;;;;5478686;25;19928;-65
2024/04/25 12:31:12;;;;;;;;;;;;;;;;;;5478199;25;19928;-65
2024/04/25 12:33:37;;;;;;;;;;;;;;;;;;5493473;25;20011;-65
2024/04/25 12:36:02;;;;;;;;;;;;;;;;;;5485059;25;20420;-65
2024/04/25 12:38:28;;;;;;;;;;;;;;;;;;5459890;26;19936;-65
2024/04/25 12:40:53;;;;;;;;;;;;;;;;;;5478497;26;19934;-67
2024/04/25 12:43:18;;;;;;;;;;;;;;;;;;5480833;25;19935;-67
2024/04/25 12:45:46;;;;;;;;;;;;;;;;;;5469478;25;19936;-67
2024/04/25 12:48:12;;;;;;;;;;;;;;;;;;5478358;25;20418;-67
2024/04/25 12:50:37;;;;;;;;;;;;;;;;;;5479632;25;19940;-67
2024/04/25 12:53:02;;;;;;;;;;;;;;;;;;5466075;25;19934;-67
2024/04/25 12:55:27;;;;;;;;;;;;;;;;;;5458302;26;20537;-67
2024/04/25 12:57:57;;;;;;;;;;;;;;;;;;5462232;26;20009;-66
2024/04/25 13:00:22;;;;;;;;;;;;;;;;;;5473188;25;19954;-67
2024/04/25 13:02:47;;;;;;;;;;;;;;;;;;5475478;25;19928;-66
2024/04/25 13:05:12;;;;;;;;;;;;;;;;;;5473972;25;19932;-67
2024/04/25 13:07:37;;;;;;;;;;;;;;;;;;5472339;25;20360;-66
2024/04/25 13:10:02;;;;;;;;;;;;;;;;;;5467164;26;19928;-66
2024/04/25 13:12:27;;;;;;;;;;;;;;;;;;5487162;25;20152;-66
2024/04/25 13:14:53;;;;;;;;;;;;;;;;;;5488286;25;20080;-67
2024/04/25 13:17:18;;;;;;;;;;;;;;;;;;5491408;25;20288;-67
2024/04/25 13:19:43;;;;;;;;;;;;;;;;;;5470190;26;19928;-66
2024/04/25 13:22:08;;;;;;;;;;;;;;;;;;5468754;25;19934;-67
2024/04/25 13:24:33;;;;;;;;;;;;;;;;;;5476581;26;19928;-67
2024/04/25 13:26:58;;;;;;;;;;;;;;;;;;5477335;25;19934;-66
2024/04/25 13:29:23;;;;;;;;;;;;;;;;;;5465366;26;19943;-66
2024/04/25 13:31:48;;;;;;;;;;;;;;;;;;5476536;25;19927;-67
2024/04/25 13:34:16;;;;;;;;;;;;;;;;;;5474743;25;20365;-66
2024/04/25 13:36:41;;;;;;;;;;;;;;;;;;5496495;26;19928;-66
2024/04/25 13:39:06;;;;;;;;;;;;;;;;;;5490477;25;19936;-67
2024/04/25 13:41:31;;;;;;;;;;;;;;;;;;5500887;25;19935;-67
2024/04/25 13:43:56;;;;;;;;;;;;;;;;;;5469379;25;19936;-67
2024/04/25 13:46:21;;;;;;;;;;;;;;;;;;5468273;25;19968;-66
2024/04/25 13:48:46;;;;;;;;;;;;;;;;;;5480468;25;19928;-67
2024/04/25 13:51:11;;;;;;;;;;;;;;;;;;5465290;26;19928;-67
2024/04/25 13:53:36;;;;;;;;;;;;;;;;;;5456951;25;19936;-66
2024/04/25 13:56:02;;;;;;;;;;;;;;;;;;5470455;25;19928;-67
2024/04/25 13:58:27;;;;;;;;;;;;;;;;;;5469450;25;20260;-67
2024/04/25 14:00:52;;;;;;;;;;;;;;;;;;5452776;25;20369;-66
2024/04/25 14:03:17;;;;;;;;;;;;;;;;;;5463975;25;19928;-66
2024/04/25 14:05:42;;;;;;;;;;;;;;;;;;5464371;26;19935;-67
2024/04/25 14:08:07;;;;;;;;;;;;;;;;;;5466149;26;19927;-68
2024/04/25 14:10:32;;;;;;;;;;;;;;;;;;5480477;26;19928;-67
2024/04/25 14:12:57;;;;;;;;;;;;;;;;;;5455991;26;20012;-66
2024/04/25 14:15:22;;;;;;;;;;;;;;;;;;5457371;26;19928;-66
2024/04/25 14:17:47;;;;;;;;;;;;;;;;;;5476078;25;19943;-66
2024/04/25 14:20:13;;;;;;;;;;;;;;;;;;5467560;26;20381;-66
2024/04/25 14:22:38;;;;;;;;;;;;;;;;;;5453465;26;19928;-66
2024/04/25 14:28:43;;;;;;;;;;;;;;;;;;5468122;26;20318;-66
2024/04/25 14:28:52;;;;;;;;;;;;;;;;;;5472558;26;19928;-67
2024/04/25 14:30:42;;;;;;;;;;;;;;;;;;5463588;25;20017;-67
2024/04/25 14:33:07;;;;;;;;;;;;;;;;;;5466349;26;19940;-66
2024/04/25 14:35:32;;;;;;;;;;;;;;;;;;5478539;25;19928;-66
2024/04/25 14:37:58;;;;;;;;;;;;;;;;;;5470532;25;19936;-66
2024/04/25 14:40:25;;;;;;;;;;;;;;;;;;5486799;25;19927;-66
2024/04/25 14:42:50;;;;;;;;;;;;;;;;;;5467789;26;20314;-66
2024/04/25 14:45:15;;;;;;;;;;;;;;;;;;5478473;26;19928;-67
2024/04/25 14:47:40;;;;;;;;;;;;;;;;;;5500119;25;19928;-66
2024/04/25 14:50:07;;;;;;;;;;;;;;;;;;5473500;25;19955;-67
2024/04/25 14:52:32;;;;;;;;;;;;;;;;;;5471303;25;20322;-66
2024/04/25 14:54:57;;;;;;;;;;;;;;;;;;5508337;25;19928;-66
2024/04/25 14:57:22;;;;;;;;;;;;;;;;;;5493907;25;19927;-66
2024/04/25 14:59:48;;;;;;;;;;;;;;;;;;5476705;25;19936;-67
2024/04/25 15:02:14;;;;;;;;;;;;;;;;;;5459678;25;19928;-67
2024/04/25 15:04:39;;;;;;;;;;;;;;;;;;5468123;25;19941;-66
2024/04/25 15:07:04;;;;;;;;;;;;;;;;;;5469994;25;19943;-67
2024/04/25 15:09:29;;;;;;;;;;;;;;;;;;5469205;26;20195;-66
2024/04/25 15:11:54;;;;;;;;;;;;;;;;;;5478544;25;20371;-66
2024/04/25 15:14:19;;;;;;;;;;;;;;;;;;5472620;25;19928;-66
2024/04/25 15:16:44;;;;;;;;;;;;;;;;;;5475183;25;19931;-67
2024/04/25 15:19:09;;;;;;;;;;;;;;;;;;5484029;25;19964;-66
2024/04/25 15:21:34;;;;;;;;;;;;;;;;;;5474312;26;19927;-66
2024/04/25 15:24:02;;;;;;;;;;;;;;;;;;5480396;26;19928;-66
2024/04/25 15:26:27;;;;;;;;;;;;;;;;;;5440598;26;19935;-66
2024/04/25 15:28:52;;;;;;;;;;;;;;;;;;5497613;25;19928;-65
2024/04/25 15:31:19;;;;;;;;;;;;;;;;;;5493559;25;19967;-66
2024/04/25 15:33:45;;;;;;;;;;;;;;;;;;5484278;25;19996;-66
2024/04/25 15:36:10;;;;;;;;;;;;;;;;;;5494935;25;19940;-66
2024/04/25 15:38:35;;;;;;;;;;;;;;;;;;5496133;25;19999;-66
2024/04/25 15:41:00;;;;;;;;;;;;;;;;;;5495719;25;19995;-66
2024/04/25 15:43:25;;;;;;;;;;;;;;;;;;5495679;25;20368;-66
2024/04/25 15:45:50;;;;;;;;;;;;;;;;;;5508044;25;19928;-66
2024/04/25 15:48:15;;;;;;;;;;;;;;;;;;5482226;25;19931;-66
2024/04/25 15:50:40;;;;;;;;;;;;;;;;;;5478383;25;20167;-66
2024/04/25 15:53:05;;;;;;;;;;;;;;;;;;5458744;26;19968;-66
2024/04/25 15:55:32;;;;;;;;;;;;;;;;;;5483101;25;19927;-66
2024/04/25 15:57:58;;;;;;;;;;;;;;;;;;5485904;26;19949;-66
2024/04/25 16:00:23;;;;;;;;;;;;;;;;;;5446414;26;20287;-66
2024/04/25 16:02:48;;;;;;;;;;;;;;;;;;5454640;26;20451;-66
2024/04/25 16:05:13;;;;;;;;;;;;;;;;;;5468126;26;19928;-66
2024/04/25 16:07:38;;;;;;;;;;;;;;;;;;5472179;26;19998;-66
2024/04/25 16:10:03;;;;;;;;;;;;;;;;;;5503579;25;19940;-66
2024/04/25 16:12:28;;;;;;;;;;;;;;;;;;5486981;25;20463;-66
2024/04/25 16:14:55;;;;;;;;;;;;;;;;;;5506163;26;19931;-65
2024/04/25 16:17:20;;;;;;;;;;;;;;;;;;5497891;26;19934;-66
2024/04/25 16:19:45;;;;;;;;;;;;;;;;;;5495909;26;19936;-66
2024/04/25 16:22:10;;;;;;;;;;;;;;;;;;5492424;25;20004;-67
2024/04/25 16:24:35;;;;;;;;;;;;;;;;;;5489030;25;19931;-66
2024/04/25 16:27:00;;;;;;;;;;;;;;;;;;5493982;26;20302;-66
2024/04/25 16:29:25;;;;;;;;;;;;;;;;;;5498453;25;19927;-65
2024/04/25 16:31:52;;;;;;;;;;;;;;;;;;5484751;26;20489;-65
2024/04/25 16:34:17;;;;;;;;;;;;;;;;;;5513726;25;19928;-65
2024/04/25 16:36:42;;;;;;;;;;;;;;;;;;5489433;26;19992;-65
2024/04/25 16:39:07;;;;;;;;;;;;;;;;;;5495198;25;20001;-65